Impacts METAR Board
IDs:

KJFK - New York/Kennedy Int, NY, US

Updated at: 0600 UTC 22 Oct 2018
Potential Impact None Slight Moderate High
Time 21/18Z 21/19Z 21/20Z 21/21Z 21/22Z 21/23Z 22/00Z 22/01Z 22/02Z 22/03Z 22/04Z 22/05Z 22/06Z
Temp49 49 47 47 45 44 43 42 42 41 41 40 40
Dewpt27 26 25 25 23 24 24 24 24 25 25 26 27
Altim29.96 29.97 29.99 30.02 30.06 30.10 30.13 30.16 30.16 30.18 30.19 30.20 30.20
VIS10 10 10 10 10 10 10 10 10 10 10 10 10
CIG50 50 -- -- -- -- -- -- -- -- -- -- --
CoverBKNBKNSCTSCTFEWFEWFEWFEWFEWCLRCLRCLRCLR
FltCatVFRVFRVFRVFRVFRVFRVFRVFRVFRVFRVFRVFRVFR
WX--------------------------
WDir310330300310310310310310310310300290290
WSpd22 26 20 21 19 19 14 13 12 11 9 8 7
WGst32 35 29 27 29 26 22 20 17 -- -- -- --
Raw hourly METARs
KJFK 211751Z 31022G32KT 10SM BKN050 09/M03 A2996 RMK AO2 PK WND 32034/1734 SLP144 T00941028 10094 20078 51007 VISNO W $
KJFK 211851Z 33026G35KT 10SM BKN050 09/M03 A2997 RMK AO2 PK WND 30035/1846 SLP149 T00941033 VISNO W $
KJFK 211951Z 30020G29KT 10SM SCT055 08/M04 A2999 RMK AO2 PK WND 32034/1855 SLP154 T00831039 VISNO W $
KJFK 212051Z 31021G27KT 10SM SCT055 08/M04 A3002 RMK AO2 PK WND 30030/2009 SLP164 T00831039 53019 VISNO W $
KJFK 212151Z 31019G29KT 10SM FEW055 07/M05 A3006 RMK AO2 PK WND 31029/2146 SLP178 T00721050 VISNO W $
KJFK 212251Z 31019G26KT 10SM FEW050 07/M04 A3010 RMK AO2 PK WND 31026/2207 SLP192 T00671044 VISNO W $
KJFK 212351Z 31014G22KT 10SM FEW050 06/M04 A3013 RMK AO2 SLP202 T00611044 10100 20061 51038 VISNO W $
KJFK 220051Z 31013G20KT 10SM FEW050 06/M04 A3016 RMK AO2 SLP211 T00561044 VISNO W $
KJFK 220151Z 31012G17KT 10SM FEW150 06/M04 A3016 RMK AO2 SLP214 T00561044 VISNO W $
KJFK 220251Z 31011KT 10SM CLR 05/M04 A3018 RMK AO2 SLP219 T00501039 51018 VISNO W $
KJFK 220351Z 30009KT 10SM CLR 05/M04 A3019 RMK AO2 SLP223 T00501039 VISNO W $
KJFK 220451Z 29008KT 10SM CLR 04/M03 A3020 RMK AO2 SLP226 T00441033 401170044 VISNO W $
KJFK 220551Z 29007KT 10SM CLR 04/M03 A3020 RMK AO2 SLP227 T00441028 10061 20044 51008 VISNO W $



Page loaded:  06:07 UTC  |   11:07 PM Pacific  |   12:07 AM Mountain  |   01:07 AM Central  |   02:07 AM Eastern

 

ADVISORIES

FORECASTS

FORECASTS

OBSERVATIONS

USER TOOLS

ABOUT US